Time;durP1;ratioP1;P1;durP2;ratioP2;P2;SDS_P1;SDS_P2;PMS_P1;PMS_P2;Temp;Humidity;BMP_temperature;BMP_pressure;BME280_temperature;BME280_humidity;BME280_pressure;Samples;Min_cycle;Max_cycle;Signal;HPM_P1;HPM_P2
2020/12/21 00:01:00;;;;;;;3.28;2.97;;;7.20;99.90;;;;;;5013354;28;20202;-77
2020/12/21 00:03:26;;;;;;;3.47;3.17;;;7.10;99.90;;;;;;5012811;28;20256;-77
2020/12/21 00:05:52;;;;;;;3.50;3.20;;;7.20;99.90;;;;;;5013389;28;20198;-77
2020/12/21 00:08:18;;;;;;;8.07;3.95;;;7.20;99.90;;;;;;5013149;28;20576;-77
2020/12/21 00:10:45;;;;;;;3.42;3.00;;;7.20;99.90;;;;;;5013092;28;20271;-78
2020/12/21 00:13:11;;;;;;;3.67;3.28;;;7.20;99.90;;;;;;5012684;28;20249;-77
2020/12/21 00:15:38;;;;;;;3.92;3.35;;;7.20;99.90;;;;;;5012933;28;20235;-78
2020/12/21 00:18:04;;;;;;;4.00;3.35;;;7.20;99.90;;;;;;5013271;28;20715;-77
2020/12/21 00:20:30;;;;;;;3.20;2.90;;;7.20;99.90;;;;;;5012929;28;20260;-77
2020/12/21 00:22:57;;;;;;;3.38;3.00;;;7.10;99.90;;;;;;5012522;28;20222;-77
2020/12/21 00:25:23;;;;;;;3.55;3.08;;;7.10;99.90;;;;;;5013068;28;20209;-78
2020/12/21 00:27:49;;;;;;;4.22;2.90;;;7.10;99.90;;;;;;5013188;28;20207;-78
2020/12/21 00:30:15;;;;;;;2.80;2.45;;;7.10;99.90;;;;;;5012832;28;20643;-78
2020/12/21 00:32:42;;;;;;;3.25;2.70;;;7.10;99.90;;;;;;5012218;28;20600;-78
2020/12/21 00:35:08;;;;;;;3.10;2.80;;;7.10;99.90;;;;;;5013175;28;20206;-77
2020/12/21 00:37:35;;;;;;;4.90;2.95;;;7.10;99.90;;;;;;5012824;28;20608;-78
2020/12/21 00:40:01;;;;;;;3.42;2.90;;;7.00;99.90;;;;;;5012639;28;20199;-78
2020/12/21 00:42:27;;;;;;;2.92;2.63;;;7.00;99.90;;;;;;5011989;28;20198;-78
2020/12/21 00:44:53;;;;;;;2.92;2.72;;;7.00;99.90;;;;;;5012394;28;20211;-78
2020/12/21 00:47:20;;;;;;;3.28;2.97;;;7.10;99.90;;;;;;5012186;28;20253;-77
2020/12/21 00:49:47;;;;;;;4.07;2.60;;;7.00;99.90;;;;;;5012314;28;20198;-77
2020/12/21 00:52:13;;;;;;;2.97;2.72;;;7.00;99.90;;;;;;5011470;28;20226;-78
2020/12/21 00:54:39;;;;;;;3.28;2.97;;;6.90;99.90;;;;;;5012115;28;20662;-78
2020/12/21 00:57:05;;;;;;;3.55;3.10;;;6.80;99.90;;;;;;5012175;28;20209;-78
2020/12/21 00:59:33;;;;;;;3.90;3.40;;;6.70;99.90;;;;;;5012121;28;20206;-78
2020/12/21 01:01:59;;;;;;;2.55;2.35;;;6.60;99.90;;;;;;5011427;28;20632;-78
2020/12/21 01:04:25;;;;;;;4.90;2.80;;;6.60;99.90;;;;;;5012057;28;20222;-78
2020/12/21 01:06:54;;;;;;;2.50;2.22;;;6.50;99.90;;;;;;5012085;28;20213;-78
2020/12/21 01:09:21;;;;;;;2.95;2.42;;;6.50;99.90;;;;;;5012241;28;20206;-78
2020/12/21 01:11:47;;;;;;;3.50;3.20;;;6.50;99.90;;;;;;5011799;28;20310;-78
2020/12/21 01:14:13;;;;;;;2.70;2.40;;;6.40;99.90;;;;;;5012573;28;20219;-77
2020/12/21 01:16:40;;;;;;;2.40;2.20;;;6.40;99.90;;;;;;5013266;28;20686;-77
2020/12/21 01:19:06;;;;;;;3.60;2.70;;;6.40;99.90;;;;;;5012742;28;20202;-77
2020/12/21 01:21:32;;;;;;;4.03;3.42;;;6.40;99.90;;;;;;5011390;28;20214;-78
2020/12/21 01:23:59;;;;;;;2.85;2.65;;;6.40;99.90;;;;;;5011213;28;20309;-77
2020/12/21 01:26:27;;;;;;;3.30;3.00;;;6.40;99.90;;;;;;5011705;28;20214;-76
2020/12/21 01:28:53;;;;;;;3.92;3.22;;;6.40;99.90;;;;;;5011658;28;20217;-76
2020/12/21 01:31:20;;;;;;;4.55;2.97;;;6.40;99.90;;;;;;5011596;28;20602;-76
2020/12/21 01:33:47;;;;;;;4.45;3.08;;;6.30;99.90;;;;;;5010898;28;20219;-77
2020/12/21 01:36:13;;;;;;;7.57;2.72;;;6.30;99.90;;;;;;5011301;28;20217;-76
2020/12/21 01:38:40;;;;;;;2.85;2.65;;;6.20;99.90;;;;;;5011371;28;20849;-77
2020/12/21 01:41:07;;;;;;;2.95;2.70;;;6.10;99.90;;;;;;5011260;28;20209;-77
2020/12/21 01:43:33;;;;;;;3.25;2.85;;;6.10;99.90;;;;;;5010384;28;20223;-77
2020/12/21 01:46:08;;;;;;;2.95;2.65;;;6.10;99.90;;;;;;5011112;28;20214;-77
2020/12/21 01:48:35;;;;;;;3.15;2.78;;;6.10;99.90;;;;;;5011021;28;20657;-77
2020/12/21 01:51:01;;;;;;;3.45;3.15;;;6.10;99.90;;;;;;5011036;28;20207;-77
2020/12/21 01:53:28;;;;;;;3.72;2.70;;;6.10;99.90;;;;;;5010186;28;20780;-77
2020/12/21 01:55:59;;;;;;;3.08;2.78;;;6.00;99.90;;;;;;5011023;28;20213;-77
2020/12/21 01:58:26;;;;;;;4.22;3.35;;;5.90;99.90;;;;;;5010765;28;20206;-77
2020/12/21 02:00:52;;;;;;;3.58;2.90;;;5.90;99.90;;;;;;5010960;28;20199;-77
2020/12/21 02:03:18;;;;;;;3.33;3.03;;;5.80;99.90;;;;;;5010108;28;20258;-77
2020/12/21 02:05:45;;;;;;;3.10;2.78;;;5.80;99.90;;;;;;5011008;28;20210;-77
2020/12/21 02:08:11;;;;;;;2.92;2.67;;;5.80;99.90;;;;;;5010781;28;20261;-77
2020/12/21 02:10:37;;;;;;;2.90;2.60;;;5.80;99.90;;;;;;5010507;28;20207;-77
2020/12/21 02:13:04;;;;;;;2.80;2.60;;;5.70;99.90;;;;;;5009415;28;20234;-77
2020/12/21 02:15:31;;;;;;;3.10;2.80;;;5.60;99.90;;;;;;5010542;28;20301;-77
2020/12/21 02:17:58;;;;;;;2.88;2.60;;;5.60;99.90;;;;;;5010766;28;20616;-77
2020/12/21 02:20:28;;;;;;;3.10;2.80;;;5.60;99.90;;;;;;5010282;28;20594;-77
2020/12/21 02:22:55;;;;;;;3.28;2.83;;;5.60;99.90;;;;;;5009936;28;20218;-77
2020/12/21 02:25:21;;;;;;;4.75;2.92;;;5.60;99.90;;;;;;5010221;28;20199;-77
2020/12/21 02:27:47;;;;;;;3.28;2.92;;;5.60;99.90;;;;;;5010619;28;20202;-77
2020/12/21 02:30:13;;;;;;;3.25;2.95;;;5.60;99.90;;;;;;5010187;28;20206;-77
2020/12/21 02:32:39;;;;;;;3.20;2.70;;;5.70;99.90;;;;;;5009468;28;20852;-77
2020/12/21 02:35:06;;;;;;;3.30;3.00;;;5.50;99.90;;;;;;5010342;28;20252;-77
2020/12/21 02:37:33;;;;;;;3.38;3.08;;;5.50;99.90;;;;;;5009852;28;20214;-77
2020/12/21 02:40:00;;;;;;;2.95;2.70;;;5.40;99.90;;;;;;5010291;28;20203;-77
2020/12/21 02:42:26;;;;;;;3.13;2.80;;;5.30;99.90;;;;;;5009294;28;20194;-77
2020/12/21 02:44:52;;;;;;;2.78;2.47;;;5.30;99.90;;;;;;5010222;28;20230;-77
2020/12/21 02:47:19;;;;;;;2.97;2.67;;;5.30;99.90;;;;;;5009929;28;20218;-77
2020/12/21 02:49:45;;;;;;;3.42;2.70;;;5.20;99.90;;;;;;5010088;28;20289;-77
2020/12/21 02:52:11;;;;;;;2.83;2.55;;;5.20;99.90;;;;;;5009186;28;20226;-77
2020/12/21 02:54:38;;;;;;;2.72;2.53;;;5.10;99.90;;;;;;5009957;28;20206;-77
2020/12/21 02:57:05;;;;;;;2.47;2.28;;;5.00;99.90;;;;;;5009999;28;20260;-77
2020/12/21 02:59:31;;;;;;;3.00;2.70;;;4.80;99.90;;;;;;5009590;28;20237;-77
2020/12/21 03:01:58;;;;;;;2.40;2.20;;;4.70;99.90;;;;;;5009259;28;20845;-77
2020/12/21 03:04:24;;;;;;;2.90;2.70;;;4.60;99.90;;;;;;5009773;28;20226;-78
2020/12/21 03:06:50;;;;;;;2.58;2.38;;;4.50;99.90;;;;;;5009665;28;20202;-78
2020/12/21 03:09:16;;;;;;;5.40;2.70;;;4.40;99.90;;;;;;5009648;28;20263;-77
2020/12/21 03:11:45;;;;;;;2.55;2.35;;;4.40;99.90;;;;;;5008826;28;20292;-77
2020/12/21 03:14:12;;;;;;;5.95;2.47;;;4.40;99.90;;;;;;5009430;28;20266;-77
2020/12/21 03:16:38;;;;;;;3.30;3.00;;;4.40;99.90;;;;;;5009375;28;20211;-77
2020/12/21 03:19:05;;;;;;;3.30;2.80;;;4.30;99.90;;;;;;5009690;28;20206;-77
2020/12/21 03:21:31;;;;;;;3.00;2.80;;;4.30;99.90;;;;;;5009165;28;20199;-77
2020/12/21 03:23:57;;;;;;;2.95;2.47;;;4.30;99.90;;;;;;5008165;28;20641;-77
2020/12/21 03:26:24;;;;;;;9.18;3.40;;;4.30;99.90;;;;;;5009538;28;20206;-77
2020/12/21 03:28:51;;;;;;;3.20;2.90;;;4.30;99.90;;;;;;5009362;28;20682;-77
2020/12/21 03:31:17;;;;;;;3.70;3.40;;;4.30;99.90;;;;;;5009356;28;20675;-77
2020/12/21 03:33:44;;;;;;;4.22;3.72;;;4.30;99.90;;;;;;5008904;28;20241;-76
2020/12/21 03:36:10;;;;;;;5.10;3.92;;;4.40;99.90;;;;;;5009550;28;20206;-76
2020/12/21 03:38:36;;;;;;;5.22;4.10;;;4.50;99.90;;;;;;5009489;28;20268;-75
2020/12/21 03:41:02;;;;;;;4.80;3.75;;;4.60;99.90;;;;;;5009592;28;20210;-76
2020/12/21 03:43:29;;;;;;;5.07;3.50;;;4.70;99.90;;;;;;5008845;28;20317;-76
2020/12/21 03:45:56;;;;;;;5.80;3.88;;;4.70;99.90;;;;;;5021372;23;20210;-73
2020/12/21 03:48:22;;;;;;;3.63;3.25;;;4.70;99.90;;;;;;5006245;28;20203;-75
2020/12/21 03:50:48;;;;;;;4.90;3.72;;;4.80;99.90;;;;;;5008939;28;20202;-75
2020/12/21 03:53:15;;;;;;;3.53;3.20;;;4.80;99.90;;;;;;5008084;28;20786;-75
2020/12/21 03:55:41;;;;;;;4.07;3.60;;;4.70;99.90;;;;;;5007453;28;20572;-74
2020/12/21 03:58:07;;;;;;;4.80;3.63;;;4.70;99.90;;;;;;5008178;28;20203;-75
2020/12/21 04:00:33;;;;;;;6.20;4.10;;;4.60;99.90;;;;;;5008601;28;20297;-75
2020/12/21 04:03:00;;;;;;;4.10;3.70;;;4.60;99.90;;;;;;5008063;28;20230;-75
2020/12/21 04:05:27;;;;;;;6.85;4.13;;;4.60;99.90;;;;;;5008555;28;20685;-74
2020/12/21 04:07:53;;;;;;;4.00;3.67;;;4.60;99.90;;;;;;5009176;28;20199;-75
2020/12/21 04:10:19;;;;;;;9.77;5.68;;;4.50;99.90;;;;;;5008495;28;20211;-75
2020/12/21 04:12:46;;;;;;;4.30;3.60;;;4.40;99.90;;;;;;5008250;28;20649;-74
2020/12/21 04:15:12;;;;;;;4.03;3.60;;;4.40;99.90;;;;;;5008488;28;20300;-75
2020/12/21 04:17:39;;;;;;;3.45;3.13;;;4.30;99.90;;;;;;5008626;28;20203;-75
2020/12/21 04:20:06;;;;;;;4.28;3.75;;;4.30;99.90;;;;;;5008402;28;20202;-74
2020/12/21 04:22:32;;;;;;;3.50;3.20;;;4.20;99.90;;;;;;5008428;28;20218;-73
2020/12/21 04:24:59;;;;;;;3.55;3.25;;;4.10;99.90;;;;;;5008634;28;20206;-75
2020/12/21 04:27:25;;;;;;;4.20;3.25;;;4.00;99.90;;;;;;5008414;28;20210;-74
2020/12/21 04:29:52;;;;;;;3.08;2.78;;;3.90;99.90;;;;;;5008529;28;20202;-75
2020/12/21 04:32:18;;;;;;;3.22;2.92;;;3.90;99.90;;;;;;5007772;28;20223;-75
2020/12/21 04:34:44;;;;;;;4.40;3.20;;;3.80;99.90;;;;;;5008414;28;20214;-75
2020/12/21 04:37:11;;;;;;;3.75;3.38;;;3.80;99.90;;;;;;5012060;28;20475;-74
2020/12/21 04:39:38;;;;;;;4.20;3.10;;;3.80;99.90;;;;;;5012116;28;20205;-75
2020/12/21 04:42:04;;;;;;;4.10;3.70;;;3.80;99.90;;;;;;5011476;28;20194;-75
2020/12/21 04:44:30;;;;;;;4.35;3.45;;;3.80;99.90;;;;;;5011682;28;20237;-73
2020/12/21 04:46:57;;;;;;;4.43;3.33;;;3.80;99.90;;;;;;5011676;28;20211;-73
2020/12/21 04:49:24;;;;;;;7.40;3.55;;;3.80;99.90;;;;;;5011471;28;20666;-73
2020/12/21 04:51:51;;;;;;;7.00;4.25;;;3.80;99.90;;;;;;5011122;28;20634;-73
2020/12/21 04:54:19;;;;;;;3.95;3.40;;;3.90;99.90;;;;;;5011370;28;20222;-74
2020/12/21 04:56:45;;;;;;;3.60;3.30;;;3.90;99.90;;;;;;5011867;28;20677;-74
2020/12/21 04:59:13;;;;;;;3.83;3.42;;;3.90;99.90;;;;;;5011822;28;20574;-73
2020/12/21 05:01:39;;;;;;;7.13;4.13;;;3.90;99.90;;;;;;5011278;28;20565;-73
2020/12/21 05:04:06;;;;;;;6.85;3.90;;;3.80;99.90;;;;;;5011408;28;20288;-72
2020/12/21 05:06:33;;;;;;;4.57;4.10;;;3.90;99.90;;;;;;5011357;28;20203;-73
2020/12/21 05:09:04;;;;;;;5.00;3.72;;;4.00;99.90;;;;;;5011355;28;20198;-73
2020/12/21 05:11:31;;;;;;;5.38;3.97;;;4.00;99.90;;;;;;5011127;28;20198;-74
2020/12/21 05:14:11;;;;;;;3.60;3.30;;;4.10;99.90;;;;;;5010838;28;20284;-73
2020/12/21 05:16:38;;;;;;;3.90;3.47;;;4.10;99.90;;;;;;5011346;28;20260;-72
2020/12/21 05:19:05;;;;;;;4.18;3.75;;;4.00;99.90;;;;;;5011375;28;20260;-72
2020/12/21 05:21:32;;;;;;;5.38;3.42;;;4.00;99.90;;;;;;5010929;28;20214;-71
2020/12/21 05:24:00;;;;;;;5.45;4.32;;;3.90;99.90;;;;;;5011075;28;20233;-73
2020/12/21 05:26:28;;;;;;;4.80;3.70;;;3.80;99.90;;;;;;5011034;28;20218;-73
2020/12/21 05:28:55;;;;;;;4.65;3.80;;;3.80;99.90;;;;;;5010307;28;20198;-73
2020/12/21 05:31:21;;;;;;;3.65;3.33;;;3.70;99.90;;;;;;5011493;28;20213;-74
2020/12/21 05:33:48;;;;;;;4.70;3.70;;;3.70;99.90;;;;;;5010840;28;20284;-73
2020/12/21 05:36:17;;;;;;;4.90;3.53;;;3.70;99.90;;;;;;5011420;28;20221;-73
2020/12/21 05:38:44;;;;;;;4.45;3.72;;;3.60;99.90;;;;;;5011395;28;20199;-73
2020/12/21 05:41:13;;;;;;;4.00;3.53;;;3.60;99.90;;;;;;5011116;28;20682;-73
2020/12/21 05:43:40;;;;;;;5.85;4.57;;;3.50;99.90;;;;;;5010762;28;20230;-73
2020/12/21 05:46:11;;;;;;;4.60;3.92;;;3.50;99.90;;;;;;5011158;28;20217;-72
2020/12/21 05:48:40;;;;;;;5.20;4.70;;;3.50;99.90;;;;;;5010260;28;20300;-73
2020/12/21 05:51:08;;;;;;;6.25;4.90;;;3.40;99.90;;;;;;5011024;28;20206;-72
2020/12/21 05:53:36;;;;;;;4.85;4.35;;;3.30;99.90;;;;;;5010412;28;20230;-73
2020/12/21 05:56:04;;;;;;;5.65;4.85;;;3.30;99.90;;;;;;5010482;28;20712;-72
2020/12/21 05:58:32;;;;;;;6.13;4.90;;;3.30;99.90;;;;;;5010795;28;20217;-73
2020/12/21 06:01:01;;;;;;;6.47;5.35;;;3.20;99.90;;;;;;5010380;28;20210;-73
2020/12/21 06:03:37;;;;;;;9.15;5.82;;;3.20;99.90;;;;;;5009596;28;20223;-72
2020/12/21 06:06:08;;;;;;;7.30;5.50;;;3.20;99.90;;;;;;5010615;28;20221;-72
2020/12/21 06:08:35;;;;;;;5.70;5.10;;;3.30;99.90;;;;;;5010430;28;20213;-73
2020/12/21 06:11:09;;;;;;;5.88;5.38;;;3.20;99.90;;;;;;5010470;28;20466;-74
2020/12/21 06:13:37;;;;;;;6.18;5.55;;;3.20;99.90;;;;;;5009733;28;20308;-73
2020/12/21 06:16:03;;;;;;;5.43;4.80;;;3.30;99.90;;;;;;5010127;28;20677;-73
2020/12/21 06:18:31;;;;;;;12.07;5.75;;;3.30;99.90;;;;;;5010128;28;20402;-73
2020/12/21 06:20:57;;;;;;;7.88;6.13;;;3.20;99.90;;;;;;5009856;28;20213;-73
2020/12/21 06:23:30;;;;;;;7.47;6.00;;;3.20;99.90;;;;;;5009256;28;20218;-72
2020/12/21 06:26:08;;;;;;;6.40;5.68;;;3.20;99.90;;;;;;5015823;28;20202;-73
2020/12/21 06:28:34;;;;;;;6.50;5.07;;;3.20;99.90;;;;;;5010285;28;20611;-72
2020/12/21 06:31:13;;;;;;;5.70;5.15;;;3.20;99.90;;;;;;5010040;28;20207;-73
2020/12/21 06:33:41;;;;;;;8.35;6.38;;;3.20;99.90;;;;;;5009205;28;20232;-73
2020/12/21 06:36:07;;;;;;;6.80;6.10;;;3.20;99.90;;;;;;5009765;28;20256;-73
2020/12/21 06:38:47;;;;;;;8.18;7.38;;;3.20;99.90;;;;;;5009757;28;20210;-71
2020/12/21 06:41:15;;;;;;;7.18;6.10;;;3.20;99.90;;;;;;5009671;28;20705;-73
2020/12/21 06:43:53;;;;;;;7.50;6.25;;;3.20;99.90;;;;;;5011180;28;20218;-71
2020/12/21 06:46:20;;;;;;;7.30;6.05;;;3.20;99.90;;;;;;5009651;28;20264;-73
2020/12/21 06:48:59;;;;;;;7.63;6.30;;;3.20;99.90;;;;;;5009564;28;20221;-72
2020/12/21 06:51:25;;;;;;;7.10;6.50;;;3.30;99.90;;;;;;5009226;28;20240;-73
2020/12/21 06:53:58;;;;;;;7.35;6.50;;;3.20;99.90;;;;;;5009198;28;20226;-73
2020/12/21 06:56:26;;;;;;;6.57;5.93;;;3.20;99.90;;;;;;5009267;28;20206;-72
2020/12/21 06:58:53;;;;;;;8.07;6.18;;;3.10;99.90;;;;;;5008978;28;20209;-73
2020/12/21 07:01:22;;;;;;;6.63;6.00;;;3.10;99.90;;;;;;5008865;28;20206;-71
2020/12/21 07:03:49;;;;;;;8.20;5.40;;;3.00;99.90;;;;;;5008559;28;20285;-73
2020/12/21 07:06:15;;;;;;;6.72;5.85;;;3.00;99.90;;;;;;5008978;28;20206;-73
2020/12/21 07:08:43;;;;;;;6.50;5.70;;;3.20;99.90;;;;;;5009040;28;20206;-72
2020/12/21 07:11:15;;;;;;;5.97;5.47;;;3.30;99.90;;;;;;5008919;28;20213;-73
2020/12/21 07:13:41;;;;;;;6.75;5.80;;;3.50;99.90;;;;;;5008566;28;20222;-73
2020/12/21 07:16:08;;;;;;;5.75;4.95;;;3.60;99.90;;;;;;5008909;28;20207;-73
2020/12/21 07:18:34;;;;;;;6.78;6.07;;;3.70;99.90;;;;;;5009157;28;20776;-73
2020/12/21 07:21:05;;;;;;;7.45;5.45;;;3.80;99.90;;;;;;5008732;28;20252;-71
2020/12/21 07:23:31;;;;;;;6.35;5.72;;;3.80;99.90;;;;;;5008071;28;20223;-73
2020/12/21 07:25:57;;;;;;;8.38;5.78;;;3.80;99.90;;;;;;5009042;28;20206;-72
2020/12/21 07:28:24;;;;;;;5.93;5.13;;;3.80;99.90;;;;;;5008589;28;20578;-73
2020/12/21 07:30:50;;;;;;;6.40;5.72;;;3.80;99.90;;;;;;5008947;28;20205;-73
2020/12/21 07:33:17;;;;;;;5.68;5.07;;;3.80;99.90;;;;;;5008045;28;20233;-73
2020/12/21 07:35:43;;;;;;;7.13;6.15;;;3.90;99.90;;;;;;4997557;28;20203;-73
2020/12/21 07:38:12;;;;;;;6.95;5.70;;;3.90;99.90;;;;;;4987275;28;20288;-72
2020/12/21 07:40:40;;;;;;;5.30;4.80;;;3.90;99.90;;;;;;4987970;28;20210;-73
2020/12/21 07:43:12;;;;;;;7.35;5.47;;;3.90;99.90;;;;;;4986548;28;20226;-72
2020/12/21 07:45:41;;;;;;;8.70;5.70;;;3.90;99.90;;;;;;4987568;28;20207;-73
2020/12/21 07:48:08;;;;;;;6.43;5.80;;;3.90;99.90;;;;;;4985180;28;20257;-72
2020/12/21 07:50:35;;;;;;;9.15;5.93;;;3.90;99.90;;;;;;4986402;28;20203;-72
2020/12/21 07:53:02;;;;;;;5.40;4.90;;;3.90;99.90;;;;;;4979453;28;20712;-72
2020/12/21 07:55:29;;;;;;;12.80;6.57;;;4.00;99.90;;;;;;4978922;28;20632;-72
2020/12/21 07:57:55;;;;;;;9.02;5.75;;;4.00;99.90;;;;;;4986763;28;20726;-70
2020/12/21 08:00:21;;;;;;;5.60;5.10;;;4.10;99.90;;;;;;4986685;28;20215;-72
2020/12/21 08:02:51;;;;;;;4.43;4.03;;;4.10;99.90;;;;;;4986669;28;20238;-71
2020/12/21 08:05:18;;;;;;;6.07;5.40;;;4.10;99.90;;;;;;4986264;28;20203;-72
2020/12/21 08:07:44;;;;;;;6.03;5.32;;;4.10;99.90;;;;;;4986982;28;20241;-72
2020/12/21 08:10:12;;;;;;;7.20;5.13;;;4.10;99.90;;;;;;4987397;28;20214;-72
2020/12/21 08:12:39;;;;;;;6.57;4.95;;;4.10;99.90;;;;;;4990071;28;20233;-71
2020/12/21 08:15:07;;;;;;;6.38;4.95;;;4.20;99.90;;;;;;4991064;28;20678;-73
2020/12/21 08:17:33;;;;;;;6.15;5.40;;;4.20;99.90;;;;;;4990242;28;20203;-72
2020/12/21 08:20:05;;;;;;;6.35;4.57;;;4.20;99.90;;;;;;4990382;28;20203;-73
2020/12/21 08:22:32;;;;;;;5.57;4.97;;;4.30;99.90;;;;;;4989863;28;20281;-72
2020/12/21 08:25:01;;;;;;;5.28;4.60;;;4.30;99.90;;;;;;4990774;28;20537;-72
2020/12/21 08:27:27;;;;;;;5.72;5.13;;;4.30;99.90;;;;;;4989376;28;20258;-71
2020/12/21 08:30:10;;;;;;;5.22;4.72;;;4.30;99.90;;;;;;4990193;28;20199;-72
2020/12/21 08:32:36;;;;;;;6.63;5.32;;;4.30;99.90;;;;;;4989586;28;20227;-72
2020/12/21 08:35:04;;;;;;;6.68;5.05;;;4.40;99.90;;;;;;4990362;28;20207;-72
2020/12/21 08:37:30;;;;;;;6.82;5.60;;;4.40;99.90;;;;;;4989637;28;20217;-71
2020/12/21 08:39:56;;;;;;;5.70;5.10;;;4.40;99.90;;;;;;4990933;28;20203;-73
2020/12/21 08:42:22;;;;;;;5.80;5.30;;;4.40;99.90;;;;;;4988267;28;20199;-72
2020/12/21 08:44:50;;;;;;;6.15;4.72;;;4.50;99.90;;;;;;4990358;28;20202;-72
2020/12/21 08:47:17;;;;;;;5.32;4.50;;;4.50;99.90;;;;;;4989763;28;20620;-72
2020/12/21 08:49:44;;;;;;;5.30;4.80;;;4.60;99.90;;;;;;4990237;28;20211;-73
2020/12/21 08:52:11;;;;;;;5.68;5.05;;;4.60;99.90;;;;;;4989531;28;20266;-73
2020/12/21 08:54:37;;;;;;;6.78;5.93;;;4.70;99.90;;;;;;4989774;28;20472;-73
2020/12/21 08:57:03;;;;;;;5.68;5.03;;;4.70;99.90;;;;;;4989859;28;20203;-73
2020/12/21 08:59:29;;;;;;;6.18;5.57;;;4.70;99.90;;;;;;4989763;28;20266;-72
2020/12/21 09:01:55;;;;;;;6.47;4.95;;;4.80;99.90;;;;;;4989935;28;20715;-72
2020/12/21 09:04:23;;;;;;;5.10;4.65;;;4.80;99.90;;;;;;4989683;28;20636;-71
2020/12/21 09:06:49;;;;;;;8.13;5.60;;;4.80;99.90;;;;;;4988977;28;20206;-72
2020/12/21 09:09:15;;;;;;;5.15;4.65;;;4.90;99.90;;;;;;4989866;28;20218;-72
2020/12/21 09:11:41;;;;;;;5.88;4.85;;;5.00;99.90;;;;;;4989331;28;20207;-71
2020/12/21 09:14:07;;;;;;;4.65;4.00;;;5.00;99.90;;;;;;4989593;28;20230;-72
2020/12/21 09:16:34;;;;;;;5.97;4.22;;;5.10;99.90;;;;;;4989048;28;20211;-72
2020/12/21 09:19:00;;;;;;;4.40;4.00;;;5.20;99.90;;;;;;4988945;28;20207;-73
2020/12/21 09:21:28;;;;;;;5.07;3.72;;;5.20;99.90;;;;;;4989439;28;20209;-72
2020/12/21 09:23:56;;;;;;;5.20;4.25;;;5.40;99.90;;;;;;4988765;28;20247;-72
2020/12/21 09:26:23;;;;;;;6.93;4.85;;;5.50;99.90;;;;;;4989438;28;20924;-72
2020/12/21 09:28:51;;;;;;;5.95;3.75;;;5.50;99.90;;;;;;4989855;28;20225;-72
2020/12/21 09:31:19;;;;;;;5.28;3.50;;;5.60;99.90;;;;;;4988144;28;20225;-72
2020/12/21 09:33:46;;;;;;;4.50;3.22;;;5.60;99.90;;;;;;4988221;28;20242;-72
2020/12/21 09:36:13;;;;;;;4.38;3.80;;;5.70;99.90;;;;;;4989469;28;20199;-72
2020/12/21 09:38:41;;;;;;;3.40;3.10;;;5.80;99.90;;;;;;4989677;28;20207;-72
2020/12/21 09:41:08;;;;;;;3.80;3.40;;;5.80;99.90;;;;;;4989017;28;20207;-72
2020/12/21 09:43:35;;;;;;;4.82;3.50;;;5.90;99.90;;;;;;4988020;28;20219;-73
2020/12/21 09:46:01;;;;;;;5.80;3.47;;;6.00;99.90;;;;;;4989100;28;20206;-71
2020/12/21 09:48:27;;;;;;;3.50;3.20;;;6.10;99.90;;;;;;4989081;28;20247;-73
2020/12/21 09:50:54;;;;;;;6.97;2.80;;;6.20;99.90;;;;;;4989617;28;20203;-72
2020/12/21 09:53:20;;;;;;;5.38;3.05;;;6.30;99.90;;;;;;4988768;28;20227;-72
2020/12/21 09:55:47;;;;;;;4.00;2.60;;;6.30;99.90;;;;;;4988824;28;20767;-72
2020/12/21 09:58:13;;;;;;;5.80;3.30;;;6.30;99.90;;;;;;4989312;28;20203;-71
2020/12/21 10:00:40;;;;;;;3.65;3.08;;;6.40;99.90;;;;;;4989198;28;20214;-72
2020/12/21 10:03:06;;;;;;;3.65;2.75;;;6.40;99.90;;;;;;4988480;28;20273;-71
2020/12/21 10:05:32;;;;;;;4.25;3.22;;;6.40;99.90;;;;;;4988629;28;20507;-71
2020/12/21 10:07:58;;;;;;;4.05;2.90;;;6.40;99.90;;;;;;4987490;28;20203;-71
2020/12/21 10:10:24;;;;;;;2.72;2.53;;;6.50;99.90;;;;;;4988203;28;20695;-71
2020/12/21 10:12:52;;;;;;;3.75;2.80;;;6.50;99.90;;;;;;4988089;28;20227;-71
2020/12/21 10:15:18;;;;;;;3.00;2.60;;;6.60;99.90;;;;;;4988310;28;20736;-72
2020/12/21 10:17:44;;;;;;;3.55;2.60;;;6.60;99.90;;;;;;4988344;28;20207;-71
2020/12/21 10:20:10;;;;;;;3.35;2.30;;;6.60;99.90;;;;;;4988517;28;20250;-72
2020/12/21 10:22:37;;;;;;;5.13;3.90;;;6.70;99.90;;;;;;4988296;28;20219;-72
2020/12/21 10:25:03;;;;;;;3.45;2.92;;;6.60;99.90;;;;;;4988484;28;20294;-73
2020/12/21 10:27:30;;;;;;;5.95;3.30;;;6.70;99.90;;;;;;5074551;23;21113;-74
2020/12/21 10:29:58;;;;;;;5.22;3.15;;;6.60;99.90;;;;;;5008202;28;20313;-75
2020/12/21 10:32:24;;;;;;;3.95;3.05;;;6.60;99.90;;;;;;5007927;28;20227;-75
2020/12/21 10:34:50;;;;;;;4.78;2.97;;;6.60;99.90;;;;;;5007622;28;20249;-75
2020/12/21 10:37:16;;;;;;;3.55;2.90;;;6.60;99.90;;;;;;5008912;28;20210;-75
2020/12/21 10:39:42;;;;;;;2.95;2.70;;;6.60;99.90;;;;;;5008986;28;20207;-75
2020/12/21 10:42:09;;;;;;;5.38;2.60;;;6.60;99.90;;;;;;5008339;28;20206;-75
2020/12/21 10:44:35;;;;;;;3.72;2.70;;;6.60;99.90;;;;;;5008685;28;20681;-74
2020/12/21 10:47:02;;;;;;;5.78;3.30;;;6.70;99.90;;;;;;5009419;28;20207;-74
2020/12/21 10:49:28;;;;;;;3.80;3.15;;;6.60;99.90;;;;;;5010238;28;20202;-76
2020/12/21 10:51:54;;;;;;;4.93;2.75;;;6.60;99.90;;;;;;5009260;28;20209;-76
2020/12/21 10:54:21;;;;;;;4.60;2.83;;;6.60;99.90;;;;;;5010153;28;20230;-75
2020/12/21 10:56:51;;;;;;;4.90;3.20;;;6.60;99.90;;;;;;5007141;28;20965;-76
2020/12/21 10:59:18;;;;;;;3.42;3.05;;;6.70;99.90;;;;;;4990783;28;20470;-76
2020/12/21 11:01:45;;;;;;;4.88;2.90;;;6.60;99.90;;;;;;4989918;28;20203;-75
2020/12/21 11:04:12;;;;;;;3.80;2.92;;;6.70;99.90;;;;;;4990691;28;20227;-76
2020/12/21 11:06:39;;;;;;;4.50;2.90;;;6.70;99.90;;;;;;4989659;28;20211;-75
2020/12/21 11:09:05;;;;;;;4.57;2.95;;;6.70;99.90;;;;;;4990097;28;20207;-75
2020/12/21 11:11:31;;;;;;;4.97;3.15;;;6.70;99.90;;;;;;4990092;28;20246;-74
2020/12/21 11:13:59;;;;;;;3.83;2.97;;;6.80;99.90;;;;;;4989740;28;20235;-76
2020/12/21 11:16:25;;;;;;;4.45;3.40;;;6.80;99.90;;;;;;4989702;28;20211;-76
2020/12/21 11:18:52;;;;;;;5.25;3.10;;;6.80;99.90;;;;;;4989834;28;20261;-75
2020/12/21 11:21:19;;;;;;;5.35;3.10;;;6.80;99.90;;;;;;4989907;28;20694;-76
2020/12/21 11:23:45;;;;;;;4.45;3.45;;;6.90;99.90;;;;;;4989263;28;20219;-76
2020/12/21 11:26:13;;;;;;;4.70;3.58;;;6.90;99.90;;;;;;4989833;28;20207;-75
2020/12/21 11:28:39;;;;;;;4.28;3.88;;;6.90;99.90;;;;;;4989782;28;20729;-76
2020/12/21 11:31:06;;;;;;;5.10;3.83;;;6.90;99.90;;;;;;4989290;28;20257;-76
2020/12/21 11:33:32;;;;;;;4.95;3.78;;;7.00;99.90;;;;;;4989038;28;20234;-76
2020/12/21 11:35:58;;;;;;;5.07;3.67;;;7.10;99.90;;;;;;4983959;28;20465;-76
2020/12/21 11:38:25;;;;;;;4.05;3.30;;;7.20;99.90;;;;;;4980597;28;20204;-76
2020/12/21 11:40:52;;;;;;;4.13;3.20;;;7.30;99.90;;;;;;4979492;28;20211;-75
2020/12/21 11:43:18;;;;;;;4.30;3.15;;;7.30;99.90;;;;;;4979593;28;20254;-75
2020/12/21 11:45:45;;;;;;;4.22;3.30;;;7.40;99.90;;;;;;4980712;28;20198;-76
2020/12/21 11:48:11;;;;;;;4.90;3.20;;;7.40;99.90;;;;;;4985131;28;20572;-75
2020/12/21 11:50:37;;;;;;;3.00;2.75;;;7.40;99.90;;;;;;4984144;28;20192;-76
2020/12/21 11:53:03;;;;;;;5.95;3.30;;;7.40;99.90;;;;;;4981625;28;20224;-75
2020/12/21 11:55:31;;;;;;;3.95;2.83;;;7.40;99.90;;;;;;4983867;28;20509;-76
2020/12/21 11:57:57;;;;;;;4.05;2.95;;;7.40;99.90;;;;;;4984846;28;20195;-76
2020/12/21 12:00:24;;;;;;;4.18;2.65;;;7.50;99.90;;;;;;4981948;28;20200;-76
2020/12/21 12:02:50;;;;;;;3.05;2.75;;;7.60;99.90;;;;;;4978255;28;20507;-77
2020/12/21 12:05:16;;;;;;;3.63;3.08;;;7.60;99.90;;;;;;4974592;28;20282;-76
2020/12/21 12:07:42;;;;;;;6.60;3.25;;;7.60;99.90;;;;;;4974154;28;20330;-76
2020/12/21 12:10:09;;;;;;;3.80;3.45;;;7.60;99.90;;;;;;4973518;28;20208;-76
2020/12/21 12:12:36;;;;;;;4.10;3.17;;;7.60;99.90;;;;;;4988579;28;20227;-75
2020/12/21 12:15:02;;;;;;;5.60;3.08;;;7.60;99.90;;;;;;4993034;28;20591;-76
2020/12/21 12:17:29;;;;;;;3.70;3.30;;;7.60;99.90;;;;;;4993512;28;20203;-76
2020/12/21 12:19:55;;;;;;;5.40;3.40;;;7.60;99.90;;;;;;4993161;28;20203;-76
2020/12/21 12:22:21;;;;;;;3.25;2.75;;;7.70;99.90;;;;;;4992509;28;20203;-75
2020/12/21 12:24:47;;;;;;;3.92;3.30;;;7.70;99.90;;;;;;4992133;28;20210;-76
2020/12/21 12:27:14;;;;;;;5.38;4.13;;;7.80;99.90;;;;;;4993097;28;20226;-76
2020/12/21 12:29:41;;;;;;;3.35;3.05;;;7.90;99.90;;;;;;4993050;28;20203;-76
2020/12/21 12:32:07;;;;;;;5.18;3.60;;;7.90;99.90;;;;;;4992229;28;20253;-76
2020/12/21 12:34:34;;;;;;;3.58;3.10;;;7.80;99.90;;;;;;4992907;28;20226;-76
2020/12/21 12:37:00;;;;;;;3.85;3.45;;;7.80;99.90;;;;;;4991660;28;20207;-76
2020/12/21 12:39:26;;;;;;;4.47;3.80;;;7.70;99.90;;;;;;4991173;28;20210;-75
2020/12/21 12:41:52;;;;;;;4.65;3.25;;;7.70;99.90;;;;;;4992345;28;20210;-76
2020/12/21 12:44:20;;;;;;;3.55;3.25;;;7.70;99.90;;;;;;4990003;28;20215;-76
2020/12/21 12:46:48;;;;;;;6.72;3.28;;;7.80;99.90;;;;;;4983672;28;20557;-76
2020/12/21 12:49:14;;;;;;;4.63;3.35;;;7.90;99.90;;;;;;4981327;28;20227;-75
2020/12/21 12:51:41;;;;;;;4.10;2.90;;;8.00;99.90;;;;;;4970862;28;20196;-75
2020/12/21 12:54:07;;;;;;;3.15;2.78;;;8.20;99.90;;;;;;4989090;28;20238;-75
2020/12/21 12:56:33;;;;;;;3.22;2.92;;;8.20;99.90;;;;;;4991537;28;20206;-75